Time;durP1;ratioP1;P1;durP2;ratioP2;P2;SDS_P1;SDS_P2;PMS_P1;PMS_P2;Temp;Humidity;BMP_temperature;BMP_pressure;BME280_temperature;BME280_humidity;BME280_pressure;Samples;Min_cycle;Max_cycle;Signal;HPM_P1;HPM_P2
2024/03/19 00:00:53;;;;;;;14.00;9.57;;;;;;;12.09;100.00;98401.28;4957813;28;20066;-92
2024/03/19 00:03:19;;;;;;;17.27;10.15;;;;;;;12.49;100.00;98498.41;4961282;28;20055;-93
2024/03/19 00:05:45;;;;;;;18.08;8.82;;;;;;;12.53;100.00;98488.44;4961095;28;20219;-93
2024/03/19 00:08:12;;;;;;;17.75;9.80;;;;;;;12.50;100.00;98488.59;4963745;28;20043;-92
2024/03/19 00:10:38;;;;;;;18.60;9.68;;;;;;;12.16;100.00;98459.69;4960330;28;20046;-92
2024/03/19 00:13:04;;;;;;;14.38;8.85;;;;;;;11.55;100.00;98365.16;4964018;28;20039;-94
2024/03/19 00:15:31;;;;;;;16.67;11.07;;;;;;;11.76;100.00;98402.56;4959772;28;20049;-92
2024/03/19 00:17:56;;;;;;;15.40;8.65;;;;;;;12.30;100.00;98489.38;4960239;28;20157;-93
2024/03/19 00:20:22;;;;;;;13.85;7.03;;;;;;;12.28;100.00;98478.75;4961737;28;21742;-93
2024/03/19 00:22:49;;;;;;;13.65;8.23;;;;;;;11.94;100.00;98433.84;4960306;28;20134;-93
2024/03/19 00:25:16;;;;;;;11.02;7.47;;;;;;;11.46;100.00;98354.84;4959553;28;20487;-94
2024/03/19 00:27:42;;;;;;;11.43;8.05;;;;;;;12.25;100.00;98486.88;4962013;28;20093;-93
2024/03/19 00:30:09;;;;;;;11.90;7.28;;;;;;;11.71;100.00;98395.63;4957790;28;20043;-94
2024/03/19 00:32:35;;;;;;;11.50;7.20;;;;;;;11.63;100.00;98387.03;4961491;28;20043;-93
2024/03/19 00:35:01;;;;;;;11.40;6.95;;;;;;;12.23;100.00;98482.50;4959283;28;20086;-94
2024/03/19 00:37:27;;;;;;;9.20;6.05;;;;;;;12.13;100.00;98490.88;4961193;28;20069;-94
2024/03/19 00:39:53;;;;;;;10.98;5.80;;;;;;;12.11;100.00;98490.06;4960008;28;20081;-93
2024/03/19 00:42:21;;;;;;;10.75;6.13;;;;;;;12.04;100.00;98493.88;4959951;28;20074;-94
2024/03/19 00:44:47;;;;;;;9.13;5.88;;;;;;;12.02;100.00;98490.41;4957407;28;20069;-92
2024/03/19 00:47:14;;;;;;;7.45;4.28;;;;;;;11.87;100.00;98454.50;4957751;28;20378;-93
2024/03/19 00:49:40;;;;;;;8.00;4.90;;;;;;;11.88;100.00;98448.31;4962728;28;20053;-94
2024/03/19 00:52:06;;;;;;;6.25;4.47;;;;;;;12.20;100.00;98504.84;4958535;28;20059;-92
2024/03/19 00:54:33;;;;;;;10.90;5.28;;;;;;;12.27;100.00;98492.13;4960105;28;20050;-94
2024/03/19 00:56:59;;;;;;;9.02;5.40;;;;;;;11.91;100.00;98441.97;4960629;28;20063;-92
2024/03/19 00:59:26;;;;;;;9.23;4.88;;;;;;;11.93;100.00;98432.13;4954892;28;20071;-94
2024/03/19 01:01:52;;;;;;;9.73;5.03;;;;;;;12.17;100.00;98485.44;4953740;28;20186;-93
2024/03/19 01:04:19;;;;;;;9.98;5.38;;;;;;;11.86;100.00;98446.56;4961139;28;20039;-94
2024/03/19 01:06:45;;;;;;;7.90;5.40;;;;;;;11.81;100.00;98444.06;4962267;28;20118;-93
2024/03/19 01:09:14;;;;;;;14.60;6.80;;;;;;;11.97;100.00;98480.84;4963086;28;20047;-91
2024/03/19 01:11:40;;;;;;;16.42;8.10;;;;;;;12.00;100.00;98492.25;4964125;28;20042;-92
2024/03/19 01:14:07;;;;;;;13.27;7.55;;;;;;;11.41;100.00;98386.09;4962720;28;20039;-93
2024/03/19 01:16:34;;;;;;;15.13;8.63;;;;;;;11.76;100.00;98477.16;4961547;28;20047;-91
2024/03/19 01:19:00;;;;;;;13.52;7.53;;;;;;;11.75;100.00;98475.41;4971028;28;20082;-91
2024/03/19 01:21:26;;;;;;;18.25;7.93;;;;;;;11.48;100.00;98424.88;4971378;28;20042;-91
2024/03/19 01:23:52;;;;;;;15.07;7.72;;;;;;;11.89;100.00;98486.47;4960808;28;20046;-93
2024/03/19 01:26:18;;;;;;;10.77;7.60;;;;;;;11.59;100.00;98451.13;4960669;28;20050;-93
2024/03/19 01:28:45;;;;;;;12.63;7.60;;;;;;;11.38;100.00;98391.53;4958118;28;20043;-94
2024/03/19 01:31:11;;;;;;;12.70;6.63;;;;;;;10.90;100.00;98342.66;4959583;28;20038;-93
2024/03/19 01:33:38;;;;;;;11.27;5.13;;;;;;;11.28;100.00;98407.84;4960472;28;20426;-94
2024/03/19 01:36:05;;;;;;;9.23;6.05;;;;;;;10.85;100.00;98337.50;4959705;28;20039;-93
2024/03/19 01:38:31;;;;;;;9.40;5.63;;;;;;;11.14;100.00;98394.13;4958882;28;20051;-91
2024/03/19 01:40:57;;;;;;;9.52;6.05;;;;;;;11.68;100.00;98480.94;4959113;28;20142;-93
2024/03/19 01:43:23;;;;;;;6.05;3.83;;;;;;;11.67;100.00;98473.91;4959566;28;21320;-92
2024/03/19 01:46:15;;;;;;;8.20;3.70;;;;;;;10.86;100.00;98328.63;4956550;28;20047;-93
2024/03/19 01:48:43;;;;;;;5.68;4.75;;;;;;;11.74;100.00;98465.69;4959079;28;20126;-94
2024/03/19 01:51:10;;;;;;;6.78;4.20;;;;;;;11.43;100.00;98426.88;4959553;28;20050;-94
2024/03/19 01:53:36;;;;;;;8.45;3.65;;;;;;;11.72;100.00;98471.91;4940617;29;20046;-92
2024/03/19 01:56:03;;;;;;;5.30;3.78;;;;;;;11.55;100.00;98433.53;4940096;29;20039;-94
2024/03/19 01:58:30;;;;;;;5.40;3.17;;;;;;;10.67;100.00;98307.13;4939916;29;20039;-94
2024/03/19 02:00:56;;;;;;;5.38;2.25;;;;;;;11.69;100.00;98460.53;4942426;29;20451;-93
2024/03/19 02:03:22;;;;;;;4.55;3.33;;;;;;;11.61;100.00;98450.16;4937519;29;20048;-92
2024/03/19 02:05:50;;;;;;;4.40;3.40;;;;;;;10.86;100.00;98347.25;4941365;29;20047;-92
2024/03/19 02:08:16;;;;;;;8.82;4.28;;;;;;;11.44;100.00;98433.91;4954980;29;20039;-93
2024/03/19 02:10:43;;;;;;;4.05;3.28;;;;;;;11.40;100.00;98416.31;4938775;29;20118;-93
2024/03/19 02:13:09;;;;;;;3.40;2.38;;;;;;;11.24;100.00;98402.69;4938597;29;20043;-92
2024/03/19 02:15:36;;;;;;;4.00;2.67;;;;;;;11.59;100.00;98481.28;4939162;29;20040;-93
2024/03/19 02:18:03;;;;;;;4.68;3.28;;;;;;;10.77;100.00;98359.97;4939142;29;20051;-92
2024/03/19 02:20:30;;;;;;;3.75;2.70;;;;;;;11.21;100.00;98422.28;4939954;29;20053;-92
2024/03/19 02:22:57;;;;;;;3.33;2.72;;;;;;;11.43;100.00;98470.31;4938847;29;20043;-93
2024/03/19 02:25:23;;;;;;;3.85;2.75;;;;;;;10.85;100.00;98381.88;4938680;29;20126;-93
2024/03/19 02:27:49;;;;;;;3.75;2.28;;;;;;;11.46;100.00;98478.19;4938958;29;20052;-95
2024/03/19 02:30:15;;;;;;;3.90;2.47;;;;;;;11.20;100.00;98415.22;4930063;29;20495;-94
2024/03/19 02:32:41;;;;;;;2.63;2.08;;;;;;;11.45;100.00;98470.25;4937900;29;20486;-93
2024/03/19 02:35:08;;;;;;;3.20;2.03;;;;;;;11.06;100.00;98412.16;4939338;29;20138;-93
2024/03/19 02:37:34;;;;;;;3.88;2.10;;;;;;;11.37;100.00;98465.22;4941656;29;20062;-93
2024/03/19 02:40:05;;;;;;;3.55;2.15;;;;;;;11.52;100.00;98463.81;4938863;29;20657;-95
2024/03/19 02:42:31;;;;;;;3.72;2.00;;;;;;;10.87;100.00;98356.09;4939210;29;20078;-95
2024/03/19 02:44:57;;;;;;;2.33;1.90;;;;;;;11.57;100.00;98472.47;4942800;29;20546;-93
2024/03/19 02:47:24;;;;;;;1.73;1.63;;;;;;;10.77;100.00;98339.56;4937006;29;20067;-94
2024/03/19 02:49:50;;;;;;;2.33;1.35;;;;;;;10.77;100.00;98334.25;4938061;29;20051;-95
2024/03/19 02:52:16;;;;;;;1.90;1.25;;;;;;;11.55;100.00;98474.31;4939896;29;20053;-94
2024/03/19 02:54:42;;;;;;;3.42;1.90;;;;;;;11.29;100.00;98478.78;4938805;29;20066;-94
2024/03/19 02:57:09;;;;;;;2.35;1.20;;;;;;;11.27;100.00;98477.94;4938976;29;20411;-95
2024/03/19 02:59:35;;;;;;;3.28;2.22;;;;;;;11.26;100.00;98478.03;4937317;29;20043;-94
2024/03/19 03:02:02;;;;;;;1.98;1.67;;;;;;;10.45;100.00;98340.66;4938152;29;20047;-94
2024/03/19 03:04:29;;;;;;;2.03;1.27;;;;;;;11.23;100.00;98496.75;4938317;29;20086;-94
2024/03/19 03:06:55;;;;;;;1.77;1.52;;;;;;;11.03;100.00;98484.13;4937358;29;20040;-94
2024/03/19 03:09:22;;;;;;;2.15;1.40;;;;;;;10.98;100.00;98473.63;4938581;29;20051;-94
2024/03/19 03:11:48;;;;;;;3.00;1.75;;;;;;;10.42;100.00;98383.31;4939813;29;20043;-94
2024/03/19 03:14:15;;;;;;;3.30;2.35;;;;;;;11.18;100.00;98488.91;4938946;29;20099;-94
2024/03/19 03:16:42;;;;;;;4.40;2.40;;;;;;;11.21;100.00;98488.84;4937470;29;20106;-94
2024/03/19 03:19:08;;;;;;;3.20;1.52;;;;;;;10.92;100.00;98433.94;4939763;29;20047;-94
2024/03/19 03:21:34;;;;;;;3.05;1.83;;;;;;;11.28;100.00;98490.34;4940972;29;20142;-95
2024/03/19 03:24:00;;;;;;;2.50;2.17;;;;;;;10.86;100.00;98408.44;4944712;28;20063;-94
2024/03/19 03:26:26;;;;;;;2.78;1.67;;;;;;;11.12;100.00;98456.31;4959532;28;20062;-92
2024/03/19 03:28:52;;;;;;;3.03;2.15;;;;;;;10.98;100.00;98415.09;4959394;28;20031;-93
2024/03/19 03:31:19;;;;;;;2.53;1.92;;;;;;;11.49;100.00;98501.16;4954922;28;20182;-94
2024/03/19 03:33:45;;;;;;;2.10;1.50;;;;;;;11.54;100.00;98515.22;4945711;29;20039;-94
2024/03/19 03:36:12;;;;;;;3.67;2.78;;;;;;;10.99;100.00;98415.97;4946429;29;20039;-96
2024/03/19 03:38:39;;;;;;;2.20;1.80;;;;;;;11.54;100.00;98512.56;4946106;29;20055;-94
2024/03/19 03:41:07;;;;;;;12.07;2.65;;;;;;;11.04;100.00;98430.00;4939224;29;20055;-93
2024/03/19 03:43:35;;;;;;;2.58;1.60;;;;;;;11.55;100.00;98514.28;4940251;29;20055;-94
2024/03/19 03:46:01;;;;;;;2.28;1.60;;;;;;;11.46;100.00;98515.47;4936372;29;20058;-94
2024/03/19 03:48:28;;;;;;;2.45;1.77;;;;;;;11.50;100.00;98517.09;4936960;29;20046;-94
2024/03/19 03:50:54;;;;;;;3.25;1.63;;;;;;;11.48;100.00;98518.09;4936074;29;20049;-95
2024/03/19 03:53:20;;;;;;;2.70;1.75;;;;;;;10.62;100.00;98369.34;4938531;29;20094;-95
2024/03/19 03:55:46;;;;;;;1.65;1.08;;;;;;;11.41;100.00;98520.09;4939407;29;20067;-95
2024/03/19 03:58:12;;;;;;;2.55;1.55;;;;;;;10.90;100.00;98431.31;4939993;29;20051;-94
2024/03/19 04:00:39;;;;;;;1.88;1.67;;;;;;;10.67;100.00;98383.38;4952428;29;20040;-93
2024/03/19 04:03:05;;;;;;;1.90;1.33;;;;;;;11.45;100.00;98523.50;4937528;29;20067;-94
2024/03/19 04:05:33;;;;;;;2.25;1.35;;;;;;;10.95;100.00;98439.16;4953866;29;20118;-93
2024/03/19 04:07:59;;;;;;;2.58;1.77;;;;;;;11.24;100.00;98488.72;4943793;29;20074;-93
2024/03/19 04:10:25;;;;;;;2.00;1.80;;;;;;;11.54;100.00;98528.53;4959546;29;20491;-93
2024/03/19 04:12:51;;;;;;;1.52;1.30;;;;;;;10.76;100.00;98387.50;4941662;29;20053;-94
2024/03/19 04:15:17;;;;;;;1.48;1.23;;;;;;;11.34;100.00;98465.28;4937883;29;20071;-95
2024/03/19 04:17:43;;;;;;;1.45;1.20;;;;;;;10.87;100.00;98396.84;4939388;29;20047;-94
2024/03/19 04:20:11;;;;;;;1.70;1.60;;;;;;;10.73;100.00;98398.22;4937862;29;20040;-95
2024/03/19 04:22:38;;;;;;;2.05;1.88;;;;;;;11.62;100.00;98529.09;4937635;29;20091;-94
2024/03/19 04:25:05;;;;;;;1.80;1.40;;;;;;;11.61;100.00;98527.38;4937488;29;20039;-95
2024/03/19 04:27:31;;;;;;;2.67;1.85;;;;;;;11.56;100.00;98533.78;4937322;29;20070;-94
2024/03/19 04:29:57;;;;;;;1.45;1.27;;;;;;;11.44;100.00;98513.78;4937609;29;20493;-94
2024/03/19 04:32:23;;;;;;;1.50;1.00;;;;;;;11.60;100.00;98544.28;4937519;29;20054;-93
2024/03/19 04:34:49;;;;;;;1.35;1.10;;;;;;;11.54;100.00;98536.50;4937750;29;20052;-94
2024/03/19 04:37:14;;;;;;;1.80;1.70;;;;;;;11.55;100.00;98524.94;4935851;29;20516;-94
2024/03/19 04:39:42;;;;;;;2.45;2.25;;;;;;;11.43;100.00;98536.03;4938502;29;20050;-93
2024/03/19 04:42:15;;;;;;;2.38;2.00;;;;;;;11.36;100.00;98543.31;4934875;29;20100;-94
2024/03/19 04:44:41;;;;;;;2.28;1.30;;;;;;;11.07;100.00;98507.06;4939027;29;20104;-94
2024/03/19 04:47:07;;;;;;;1.73;1.10;;;;;;;11.33;100.00;98543.44;4935947;29;20039;-95
2024/03/19 04:49:33;;;;;;;1.80;1.70;;;;;;;11.09;100.00;98507.88;4938076;29;20044;-95
2024/03/19 04:51:59;;;;;;;2.10;1.35;;;;;;;11.39;100.00;98537.91;4938003;29;20047;-94
2024/03/19 04:54:25;;;;;;;3.78;1.40;;;;;;;11.36;100.00;98540.66;4936835;29;20055;-95
2024/03/19 04:56:52;;;;;;;1.35;1.00;;;;;;;11.36;100.00;98551.31;4935943;29;20051;-95
2024/03/19 04:59:18;;;;;;;1.60;1.35;;;;;;;11.19;100.00;98529.72;4937509;29;20081;-95
2024/03/19 05:01:44;;;;;;;1.83;1.73;;;;;;;10.55;100.00;98424.50;4935146;29;20039;-94
2024/03/19 05:04:10;;;;;;;1.05;1.00;;;;;;;11.31;100.00;98554.13;4937529;29;20048;-95
2024/03/19 05:06:36;;;;;;;1.77;1.52;;;;;;;11.34;100.00;98550.47;4935681;29;20487;-94
2024/03/19 05:09:02;;;;;;;1.60;1.05;;;;;;;11.27;100.00;98548.97;4937193;29;20423;-95
2024/03/19 05:11:31;;;;;;;1.70;1.60;;;;;;;11.19;100.00;98554.56;4951525;29;20040;-95
2024/03/19 05:13:59;;;;;;;2.10;1.90;;;;;;;11.25;100.00;98556.97;4935910;29;20043;-94
2024/03/19 05:16:25;;;;;;;1.95;1.73;;;;;;;11.05;100.00;98524.84;4934386;29;20048;-94
2024/03/19 05:18:51;;;;;;;1.55;1.10;;;;;;;11.21;100.00;98557.16;4937925;29;20048;-94
2024/03/19 05:21:18;;;;;;;2.20;1.65;;;;;;;11.29;100.00;98561.28;4937078;29;20048;-95
2024/03/19 05:23:44;;;;;;;1.63;1.52;;;;;;;10.95;100.00;98521.63;4935397;29;20129;-95
2024/03/19 05:26:11;;;;;;;1.73;1.52;;;;;;;11.21;100.00;98570.44;4952148;29;20054;-95
2024/03/19 05:28:37;;;;;;;1.92;1.50;;;;;;;11.05;100.00;98544.34;4937959;29;20051;-94
2024/03/19 05:31:19;;;;;;;2.13;1.25;;;;;;;11.19;100.00;98574.94;4942191;28;20027;-93
2024/03/19 05:33:49;;;;;;;1.73;1.10;;;;;;;11.02;100.00;98551.56;4956211;28;20039;-93
2024/03/19 05:36:16;;;;;;;4.25;1.80;;;;;;;10.57;100.00;98491.81;4954686;28;20062;-93
2024/03/19 05:38:41;;;;;;;1.58;1.48;;;;;;;11.00;100.00;98577.34;4963829;28;20031;-94
2024/03/19 05:41:07;;;;;;;1.67;0.98;;;;;;;10.89;100.00;98578.56;4960701;28;20049;-94
2024/03/19 05:43:34;;;;;;;2.15;1.60;;;;;;;10.56;100.00;98526.41;4961913;28;20043;-96
2024/03/19 05:46:00;;;;;;;2.50;1.55;;;;;;;10.46;100.00;98504.56;4959890;28;20097;-95
2024/03/19 05:48:27;;;;;;;2.63;1.70;;;;;;;10.13;100.00;98445.28;4964128;28;20047;-94
2024/03/19 05:50:56;;;;;;;2.53;1.98;;;;;;;10.04;100.00;98457.97;4965097;28;20478;-95
2024/03/19 05:53:22;;;;;;;2.10;1.80;;;;;;;10.71;100.00;98602.19;4964573;28;20034;-94
2024/03/19 05:55:48;;;;;;;2.08;1.85;;;;;;;10.52;100.00;98609.84;4938475;29;20047;-96
2024/03/19 05:58:14;;;;;;;1.65;1.55;;;;;;;10.09;100.00;98513.63;4938207;29;20047;-92
2024/03/19 06:00:40;;;;;;;1.80;1.67;;;;;;;10.27;100.00;98570.66;4939087;29;20062;-95
2024/03/19 06:03:07;;;;;;;2.20;2.00;;;;;;;10.54;100.00;98605.34;4939453;29;20047;-96
2024/03/19 06:05:35;;;;;;;2.63;2.40;;;;;;;10.52;100.00;98612.50;4943827;29;20035;-96
2024/03/19 06:08:01;;;;;;;2.70;1.77;;;;;;;10.51;100.00;98616.09;4940287;29;20047;-95
2024/03/19 06:10:27;;;;;;;3.60;2.17;;;;;;;10.58;100.00;98612.31;4939683;29;20044;-96
2024/03/19 06:12:53;;;;;;;3.10;2.20;;;;;;;10.76;100.00;98626.88;4942451;29;20071;-94
2024/03/19 06:15:19;;;;;;;3.83;1.80;;;;;;;10.15;100.00;98499.25;4939531;29;20058;-95
2024/03/19 06:17:44;;;;;;;3.40;1.85;;;;;;;10.42;100.00;98532.16;4940237;29;20402;-95
2024/03/19 06:20:17;;;;;;;3.40;2.17;;;;;;;11.15;100.00;98613.25;4943367;29;20055;-96
2024/03/19 06:22:47;;;;;;;2.58;1.88;;;;;;;11.41;100.00;98621.25;4956471;28;20051;-95
2024/03/19 06:25:17;;;;;;;5.57;2.25;;;;;;;10.68;100.00;98462.22;4958564;28;20051;-94
2024/03/19 06:27:46;;;;;;;2.55;1.60;;;;;;;10.89;100.00;98466.84;4948102;29;20047;-95
2024/03/19 06:30:16;;;;;;;7.35;1.35;;;;;;;12.01;100.00;98627.22;4951287;28;20047;-94
2024/03/19 06:32:42;;;;;;;2.70;2.45;;;;;;;11.41;100.00;98540.53;4942197;29;20046;-94
2024/03/19 06:35:08;;;;;;;2.90;1.85;;;;;;;11.25;100.00;98513.53;4937756;29;20039;-92
2024/03/19 06:37:34;;;;;;;3.90;2.03;;;;;;;11.94;100.00;98632.84;4939746;29;20059;-95
2024/03/19 06:40:05;;;;;;;2.03;1.35;;;;;;;12.05;100.00;98628.88;4939350;29;20052;-95
2024/03/19 06:42:31;;;;;;;3.15;2.42;;;;;;;12.06;100.00;98635.97;4940921;29;20058;-95
2024/03/19 06:44:57;;;;;;;2.03;1.80;;;;;;;12.23;100.00;98631.81;4939393;29;20051;-95
2024/03/19 06:47:23;;;;;;;1.45;1.30;;;;;;;11.67;100.00;98511.19;4954055;29;20049;-94
2024/03/19 06:49:49;;;;;;;1.60;1.42;;;;;;;12.20;100.00;98597.28;4943294;29;20050;-95
2024/03/19 06:52:15;;;;;;;2.58;1.65;;;;;;;12.62;100.00;98656.16;4940500;29;20051;-95
2024/03/19 06:54:41;;;;;;;3.50;1.92;;;;;;;12.56;100.00;98647.53;4938505;29;20046;-94
2024/03/19 06:57:09;;;;;;;1.63;1.52;;;;;;;12.50;100.00;98652.13;4938219;29;20126;-95
2024/03/19 06:59:35;;;;;;;1.92;1.73;;;;;;;12.58;100.00;98649.19;4941554;29;20051;-94
2024/03/19 07:02:06;;;;;;;1.92;1.38;;;;;;;12.75;100.00;98651.22;4932532;29;20071;-94
2024/03/19 07:04:32;;;;;;;2.60;1.88;;;;;;;12.81;100.00;98653.66;4937825;29;20078;-96
2024/03/19 07:06:58;;;;;;;3.05;1.92;;;;;;;12.87;100.00;98655.22;4937043;29;20052;-94
2024/03/19 07:09:24;;;;;;;2.55;1.85;;;;;;;12.44;100.00;98622.16;4926904;29;20047;-96
2024/03/19 07:11:50;;;;;;;4.32;2.10;;;;;;;12.61;100.00;98669.56;4942427;29;20047;-93
2024/03/19 07:14:18;;;;;;;2.13;1.55;;;;;;;12.63;100.00;98615.22;4942046;29;20043;-94
2024/03/19 07:16:44;;;;;;;3.20;2.58;;;;;;;13.07;100.00;98663.34;4941741;29;20142;-95
2024/03/19 07:19:10;;;;;;;1.90;1.60;;;;;;;13.26;100.00;98660.81;4938993;29;20143;-94
2024/03/19 07:21:35;;;;;;;2.83;1.67;;;;;;;13.08;100.00;98624.19;4938159;29;20043;-93
2024/03/19 07:24:02;;;;;;;1.83;1.73;;;;;;;13.46;100.00;98656.50;4939307;29;20103;-93
2024/03/19 07:26:27;;;;;;;2.83;2.00;;;;;;;13.04;100.00;98556.69;4938624;29;20040;-92
2024/03/19 07:28:53;;;;;;;2.85;1.73;;;;;;;13.63;100.00;98674.53;4956078;29;20053;-93
2024/03/19 07:31:22;;;;;;;2.33;2.13;;;;;;;13.30;100.00;98584.16;4937752;29;20062;-92
2024/03/19 07:33:48;;;;;;;1.77;1.60;;;;;;;13.96;100.00;98669.56;4938300;29;20054;-93
2024/03/19 07:36:14;;;;;;;2.70;1.92;;;;;;;13.96;100.00;98677.59;4940225;29;20043;-92
2024/03/19 07:38:40;;;;;;;4.25;1.85;;;;;;;13.96;100.00;98673.09;4939672;29;20046;-93
2024/03/19 07:41:07;;;;;;;3.88;1.63;;;;;;;13.51;100.00;98561.00;4939627;29;20050;-91
2024/03/19 07:43:33;;;;;;;2.40;1.80;;;;;;;14.20;100.00;98685.50;4939599;29;20031;-92
2024/03/19 07:45:59;;;;;;;2.05;1.80;;;;;;;14.37;100.00;98690.97;4935877;29;20043;-92
2024/03/19 07:48:26;;;;;;;2.05;1.58;;;;;;;14.62;100.00;98695.31;4940214;29;20058;-91
2024/03/19 07:50:56;;;;;;;2.22;1.98;;;;;;;14.47;100.00;98700.34;4940147;29;20054;-94
2024/03/19 07:53:22;;;;;;;1.45;1.35;;;;;;;14.67;100.00;98694.13;4939959;29;20078;-92
2024/03/19 07:55:48;;;;;;;4.03;1.27;;;;;;;14.10;100.00;98611.03;4940686;29;20134;-94
2024/03/19 07:58:14;;;;;;;2.15;1.45;;;;;;;14.78;100.00;98699.88;4939695;29;20201;-92
2024/03/19 08:00:40;;;;;;;1.77;1.50;;;;;;;14.48;100.00;98605.75;4937434;29;20055;-93
2024/03/19 08:03:06;;;;;;;1.92;1.45;;;;;;;14.93;100.00;98634.06;4939495;29;20054;-93
2024/03/19 08:05:33;;;;;;;2.13;1.33;;;;;;;15.27;100.00;98701.25;4938424;29;20074;-92
2024/03/19 08:08:01;;;;;;;2.08;1.77;;;;;;;14.88;100.00;98668.22;4936171;29;20040;-94
2024/03/19 08:10:29;;;;;;;1.83;1.23;;;;;;;15.44;100.00;98711.13;4937315;29;20043;-92
2024/03/19 08:12:55;;;;;;;1.70;1.38;;;;;;;15.35;100.00;98704.41;4955016;28;20049;-93
2024/03/19 08:15:21;;;;;;;2.20;1.77;;;;;;;15.03;100.00;98634.50;4941347;29;20138;-95
2024/03/19 08:17:47;;;;;;;2.72;1.80;;;;;;;15.44;100.00;98676.31;4942858;29;20058;-94
2024/03/19 08:20:15;;;;;;;4.32;1.73;;;;;;;15.73;100.00;98712.47;4941688;29;20130;-93
2024/03/19 08:22:43;;;;;;;2.13;1.90;;;;;;;15.78;100.00;98708.59;4960315;28;20055;-94
2024/03/19 08:25:10;;;;;;;3.25;1.95;;;;;;;15.70;100.00;98715.22;4942929;29;20071;-93
2024/03/19 08:27:37;;;;;;;2.60;2.13;;;;;;;14.93;100.00;98622.47;4942935;29;20035;-94
2024/03/19 08:30:04;;;;;;;3.55;1.60;;;;;;;15.37;100.00;98703.38;4939832;29;20074;-91
2024/03/19 08:32:30;;;;;;;4.63;1.45;;;;;;;14.77;100.00;98582.19;4938434;29;20047;-94
2024/03/19 08:34:56;;;;;;;2.92;2.25;;;;;;;15.38;100.00;98631.94;4952376;28;20039;-90
2024/03/19 08:37:22;;;;;;;2.33;1.65;;;;;;;15.55;100.00;98668.63;4965353;28;20039;-90
2024/03/19 08:39:53;;;;;;;2.95;1.88;;;;;;;15.82;100.00;98664.59;4957736;28;20112;-93
2024/03/19 08:42:19;;;;;;;8.88;1.85;;;;;;;15.92;100.00;98713.28;4957657;28;20094;-93
2024/03/19 08:44:45;;;;;;;2.42;1.95;;;;;;;15.93;100.00;98685.50;4967101;28;20047;-92
2024/03/19 08:47:11;;;;;;;2.75;2.45;;;;;;;15.17;100.00;98569.53;4954231;28;20046;-93
2024/03/19 08:49:38;;;;;;;2.92;2.72;;;;;;;16.12;100.00;98719.47;4963011;28;20079;-96
2024/03/19 08:52:04;;;;;;;2.83;2.63;;;;;;;14.45;100.00;98602.38;4947295;28;20066;-93
2024/03/19 08:54:30;;;;;;;2.08;1.88;;;;;;;15.33;100.00;98725.94;4944924;29;20066;-95
2024/03/19 08:56:57;;;;;;;2.78;2.25;;;;;;;15.72;100.00;98727.69;4946202;28;20058;-93
2024/03/19 08:59:24;;;;;;;2.15;1.73;;;;;;;15.87;100.00;98712.63;4938804;29;20047;-93
2024/03/19 09:01:50;;;;;;;3.65;2.47;;;;;;;15.96;100.00;98668.38;4939927;28;20488;-94
2024/03/19 09:04:16;;;;;;;4.30;2.25;;;;;;;15.98;100.00;98664.72;4940413;29;20105;-95
2024/03/19 09:06:42;;;;;;;3.50;1.70;;;;;;;16.28;100.00;98704.31;4940861;29;20130;-94
2024/03/19 09:09:08;;;;;;;3.13;2.83;;;;;;;16.28;100.00;98714.19;4941914;29;20047;-95
2024/03/19 09:11:35;;;;;;;4.13;2.60;;;;;;;16.38;100.00;98641.16;4940792;29;20118;-94
2024/03/19 09:14:03;;;;;;;3.13;2.55;;;;;;;16.55;100.00;98637.59;4942018;28;20049;-95
2024/03/19 09:16:28;;;;;;;3.80;1.92;;;;;;;17.16;100.00;98713.13;4941666;29;20057;-95
2024/03/19 09:18:54;;;;;;;2.83;2.50;;;;;;;17.02;100.00;98711.19;4941098;28;20055;-93
2024/03/19 09:21:20;;;;;;;3.08;2.67;;;;;;;17.02;100.00;98717.47;4942202;29;20499;-95
2024/03/19 09:23:46;;;;;;;2.53;2.33;;;;;;;17.08;100.00;98716.22;4941197;29;20043;-95
2024/03/19 09:26:12;;;;;;;3.10;2.10;;;;;;;16.83;100.00;98684.47;4939953;29;20039;-95
2024/03/19 09:28:39;;;;;;;3.63;2.53;;;;;;;15.78;100.00;98604.03;4940679;29;20047;-95
2024/03/19 09:31:07;;;;;;;2.45;1.95;;;;;;;15.79;100.00;98626.38;4949746;28;20043;-95
2024/03/19 09:33:33;;;;;;;2.25;1.98;;;;;;;16.39;100.00;98731.47;4945007;29;20039;-94
2024/03/19 09:35:59;;;;;;;4.22;3.10;;;;;;;16.42;100.00;98685.69;4941371;29;20106;-93
2024/03/19 09:38:25;;;;;;;2.33;1.67;;;;;;;16.06;100.00;98730.50;4942515;29;20404;-94
2024/03/19 09:40:55;;;;;;;2.60;2.35;;;;;;;16.65;100.00;98707.75;4943066;28;20058;-96
2024/03/19 09:43:23;;;;;;;2.53;2.25;;;;;;;16.76;100.00;98694.66;4944633;28;20043;-94
2024/03/19 09:45:50;;;;;;;3.13;2.58;;;;;;;16.34;100.00;98655.69;4939153;28;20043;-94
2024/03/19 09:48:19;;;;;;;4.20;2.67;;;;;;;16.09;100.00;98618.56;4943699;29;20067;-94
2024/03/19 09:50:46;;;;;;;2.08;1.88;;;;;;;16.64;100.00;98743.63;4942972;29;20135;-93
2024/03/19 09:53:19;;;;;;;2.22;1.98;;;;;;;16.48;100.00;98737.28;4942477;28;20133;-95
2024/03/19 09:55:47;;;;;;;2.65;2.45;;;;;;;16.27;100.00;98621.22;4940728;29;20071;-95
2024/03/19 09:58:13;;;;;;;3.10;1.85;;;;;;;17.10;100.00;98659.75;4940542;29;20043;-96
2024/03/19 10:00:44;;;;;;;3.47;2.50;;;;;;;17.77;100.00;98663.09;4939057;29;20546;-95
2024/03/19 10:03:10;;;;;;;2.67;2.47;;;;;;;18.12;96.39;98692.47;4944199;28;20043;-96
2024/03/19 10:05:37;;;;;;;8.30;4.30;;;;;;;18.39;97.52;98727.66;4947935;29;20050;-95
2024/03/19 10:08:05;;;;;;;3.65;2.90;;;;;;;18.77;94.99;98724.47;4944606;28;20098;-95
2024/03/19 10:10:32;;;;;;;2.78;2.17;;;;;;;18.94;90.37;98724.31;4945160;29;20149;-95
2024/03/19 10:12:59;;;;;;;3.58;2.80;;;;;;;19.42;75.27;98732.97;4944364;28;20068;-96
2024/03/19 10:15:26;;;;;;;2.28;2.08;;;;;;;17.98;70.13;98617.97;4939084;29;20079;-96
2024/03/19 10:17:53;;;;;;;2.38;2.15;;;;;;;17.75;67.62;98624.66;4944374;28;20144;-96
2024/03/19 10:20:19;;;;;;;2.50;2.28;;;;;;;17.83;70.00;98716.59;4941496;29;20052;-95
2024/03/19 10:22:47;;;;;;;3.65;3.00;;;;;;;17.96;64.63;98655.72;4939466;29;20491;-96
2024/03/19 10:25:15;;;;;;;2.58;2.35;;;;;;;18.27;65.60;98731.94;4942109;28;20046;-95
2024/03/19 10:27:42;;;;;;;4.78;2.83;;;;;;;17.42;70.66;98680.28;4945285;29;20134;-94
2024/03/19 10:30:11;;;;;;;3.85;2.72;;;;;;;17.37;67.94;98748.69;4941703;28;20764;-96
2024/03/19 10:32:38;;;;;;;3.80;2.95;;;;;;;17.13;70.66;98737.47;4940198;29;20047;-94
2024/03/19 10:35:14;;;;;;;3.15;2.63;;;;;;;16.88;69.18;98711.94;4938985;28;20047;-94
2024/03/19 10:37:39;;;;;;;3.97;2.97;;;;;;;16.57;73.58;98729.66;4940451;29;20051;-94
2024/03/19 10:40:11;;;;;;;3.92;3.20;;;;;;;16.86;71.45;98723.72;4945359;28;20102;-94
2024/03/19 10:42:39;;;;;;;5.97;3.00;;;;;;;17.40;68.49;98718.97;4941889;29;20070;-95
2024/03/19 10:45:14;;;;;;;3.42;2.90;;;;;;;17.27;68.48;98721.47;4956456;28;20035;-95
2024/03/19 10:47:43;;;;;;;3.42;2.53;;;;;;;17.51;67.27;98724.63;4946477;29;20102;-96
2024/03/19 10:50:13;;;;;;;4.13;2.70;;;;;;;17.44;68.60;98734.84;4944346;28;20907;-96
2024/03/19 10:52:55;;;;;;;3.47;2.78;;;;;;;17.21;67.61;98721.81;4951433;29;20047;-94
2024/03/19 10:55:30;;;;;;;3.17;2.72;;;;;;;17.74;68.32;98722.44;4943835;29;20122;-95
2024/03/19 10:58:03;;;;;;;5.45;2.38;;;;;;;17.43;67.27;98675.78;4967086;28;20047;-95
2024/03/19 11:00:31;;;;;;;3.20;2.75;;;;;;;16.97;66.23;98611.19;4944741;29;20055;-95
2024/03/19 11:03:07;;;;;;;4.43;2.70;;;;;;;17.61;67.73;98735.72;4947803;28;20122;-95
2024/03/19 11:05:33;;;;;;;3.65;2.53;;;;;;;17.57;66.09;98675.00;4941752;29;20043;-96
2024/03/19 11:08:03;;;;;;;3.38;2.80;;;;;;;17.10;66.96;98617.59;4943705;28;20043;-96
2024/03/19 11:10:35;;;;;;;4.95;3.45;;;;;;;16.01;68.65;98615.41;4944688;29;20043;-96
2024/03/19 11:13:08;;;;;;;5.00;3.15;;;;;;;16.72;69.94;98725.31;4957470;28;20055;-96
2024/03/19 11:15:35;;;;;;;3.08;2.63;;;;;;;16.10;70.90;98655.16;4959281;28;20044;-96
2024/03/19 11:18:16;;;;;;;4.53;3.10;;;;;;;16.09;70.58;98633.75;4942750;28;20050;-95
2024/03/19 11:20:48;;;;;;;4.10;2.83;;;;;;;17.02;67.23;98741.63;4939015;28;20126;-94
2024/03/19 11:23:15;;;;;;;4.97;3.03;;;;;;;17.31;68.59;98736.47;4940505;29;20054;-96